Craigville, Minnesota
Current Conditions -  °F | °C
As of 4:33 AM on Tuesday 27 Jan 2015 (Local Time) from KFOZ Reporting Station
Overcast Overcast  
Wind Chill: 27°   Ceiling: 900
Heat Index: 27°   Visibility: 10mi
Dew Point: 21°   Wind: 0mph
Humidity: 80%   Direction: NA
Pressure: 30.05"   Gusts: NA
Location:  47.8544°N, 93.6219°W
Report Text: KFOZ 271033Z AUTO 00000KT 10SM OVC009 M03/M06 A3005 RMK AO2
Loading
Personal Weather Stations






























Interactive Weather Map New forecast layout! Learn more

10-Day Weather Forecast

Advertisements
Track Severe Weather on mobile